Time;durP1;ratioP1;P1;durP2;ratioP2;P2;SDS_P1;SDS_P2;PMS_P1;PMS_P2;Temp;Humidity;BMP_temperature;BMP_pressure;BME280_temperature;BME280_humidity;BME280_pressure;Samples;Min_cycle;Max_cycle;Signal;HPM_P1;HPM_P2
2022/08/29 00:00:54;;;;;;;;;;;15.50;70.70;;;;;;5021064;28;20412;-79
2022/08/29 00:03:19;;;;;;;;;;;15.30;71.20;;;;;;5027176;28;19921;-79
2022/08/29 00:05:44;;;;;;;;;;;15.40;71.60;;;;;;5027621;28;21361;-79
2022/08/29 00:08:10;;;;;;;;;;;15.40;71.50;;;;;;5028129;28;19924;-79
2022/08/29 00:10:36;;;;;;;;;;;15.50;71.60;;;;;;5024272;28;19921;-79
2022/08/29 00:13:03;;;;;;;;;;;15.40;71.30;;;;;;5028571;28;19921;-79
2022/08/29 00:15:29;;;;;;;;;;;15.30;71.30;;;;;;5025005;28;19943;-79
2022/08/29 00:17:54;;;;;;;;;;;15.20;71.10;;;;;;5025850;28;19943;-79
2022/08/29 00:20:21;;;;;;;;;;;15.20;71.10;;;;;;5004125;28;20416;-78
2022/08/29 00:22:47;;;;;;;;;;;15.20;71.50;;;;;;5002061;28;19917;-78
2022/08/29 00:25:12;;;;;;;;;;;15.20;71.50;;;;;;5024047;28;20395;-78
2022/08/29 00:27:38;;;;;;;;;;;15.20;71.00;;;;;;5030337;28;19942;-78
2022/08/29 00:30:04;;;;;;;;;;;15.30;70.70;;;;;;5011697;28;19913;-78
2022/08/29 00:32:33;;;;;;;;;;;15.20;70.80;;;;;;5032344;28;19921;-78
2022/08/29 00:35:00;;;;;;;;;;;15.20;70.80;;;;;;5029103;28;19920;-77
2022/08/29 00:37:25;;;;;;;;;;;15.00;71.00;;;;;;5012581;28;19920;-78
2022/08/29 00:39:51;;;;;;;;;;;14.90;71.40;;;;;;5030156;28;19917;-78
2022/08/29 00:42:16;;;;;;;;;;;14.90;71.60;;;;;;5034658;28;19920;-78
2022/08/29 00:44:42;;;;;;;;;;;14.90;72.60;;;;;;5030827;28;20157;-78
2022/08/29 00:47:10;;;;;;;;;;;14.90;73.20;;;;;;5029199;28;20260;-78
2022/08/29 00:49:38;;;;;;;;;;;14.90;73.10;;;;;;5032488;28;19917;-78
2022/08/29 00:52:09;;;;;;;;;;;14.90;73.00;;;;;;5034238;28;20299;-78
2022/08/29 00:54:35;;;;;;;;;;;14.90;72.90;;;;;;5030899;28;19955;-78
2022/08/29 00:57:01;;;;;;;;;;;14.90;72.90;;;;;;5030300;28;19913;-78
2022/08/29 00:59:30;;;;;;;;;;;14.90;73.40;;;;;;5033271;28;19913;-78
2022/08/29 01:01:56;;;;;;;;;;;14.90;73.50;;;;;;5035217;28;19919;-78
2022/08/29 01:04:21;;;;;;;;;;;14.90;73.40;;;;;;5032314;28;19917;-78
2022/08/29 01:06:47;;;;;;;;;;;15.00;73.00;;;;;;5033365;28;19917;-78
2022/08/29 01:09:12;;;;;;;;;;;14.90;73.00;;;;;;5029990;28;20424;-78
2022/08/29 01:14:23;;;;;;;;;;;14.90;72.80;;;;;;5027904;28;19943;-78
2022/08/29 01:16:49;;;;;;;;;;;14.90;73.30;;;;;;5033009;28;19913;-78
2022/08/29 01:19:33;;;;;;;;;;;15.00;72.50;;;;;;5027967;28;19964;-78
2022/08/29 01:22:10;;;;;;;;;;;15.00;72.90;;;;;;5027513;28;19923;-78
2022/08/29 01:24:41;;;;;;;;;;;15.00;72.70;;;;;;5011802;28;20199;-78
2022/08/29 01:27:07;;;;;;;;;;;15.00;72.80;;;;;;5025993;28;20023;-78
2022/08/29 01:29:33;;;;;;;;;;;15.00;72.80;;;;;;5011982;28;19948;-78
2022/08/29 01:31:59;;;;;;;;;;;14.90;73.20;;;;;;5026503;28;20352;-78
2022/08/29 01:34:26;;;;;;;;;;;14.90;72.90;;;;;;5029195;28;19917;-78
2022/08/29 01:36:56;;;;;;;;;;;14.80;73.40;;;;;;5031779;28;19913;-78
2022/08/29 01:39:25;;;;;;;;;;;14.80;73.40;;;;;;5025530;28;19954;-78
2022/08/29 01:41:51;;;;;;;;;;;14.80;72.90;;;;;;5028506;28;19913;-78
2022/08/29 01:44:18;;;;;;;;;;;14.70;73.50;;;;;;5029191;28;20289;-78
2022/08/29 01:46:44;;;;;;;;;;;14.70;73.10;;;;;;5011757;28;20304;-78
2022/08/29 01:49:10;;;;;;;;;;;14.70;73.80;;;;;;5025160;28;19924;-78
2022/08/29 01:51:36;;;;;;;;;;;14.70;73.30;;;;;;5031364;28;20343;-78
2022/08/29 01:54:04;;;;;;;;;;;14.60;73.50;;;;;;5028299;28;20296;-77
2022/08/29 01:56:31;;;;;;;;;;;14.50;73.80;;;;;;5032128;28;19921;-78
2022/08/29 01:58:58;;;;;;;;;;;14.60;73.30;;;;;;5027133;28;19917;-78
2022/08/29 02:01:29;;;;;;;;;;;14.50;73.60;;;;;;5030647;28;20279;-78
2022/08/29 02:03:57;;;;;;;;;;;14.40;73.60;;;;;;5008702;28;20003;-78
2022/08/29 02:06:22;;;;;;;;;;;14.30;73.70;;;;;;5029340;28;19920;-78
2022/08/29 02:08:48;;;;;;;;;;;14.20;73.70;;;;;;5007486;28;20307;-78
2022/08/29 02:11:15;;;;;;;;;;;14.10;73.80;;;;;;5035576;28;19917;-78
2022/08/29 02:13:44;;;;;;;;;;;14.00;74.40;;;;;;5029297;28;20019;-78
2022/08/29 02:16:11;;;;;;;;;;;13.90;74.60;;;;;;5030207;28;19913;-77
2022/08/29 02:18:36;;;;;;;;;;;13.90;74.90;;;;;;5009978;28;19924;-77
2022/08/29 02:21:02;;;;;;;;;;;13.80;74.80;;;;;;5030348;28;19996;-78
2022/08/29 02:23:28;;;;;;;;;;;13.80;75.00;;;;;;5010746;28;20515;-78
2022/08/29 02:25:53;;;;;;;;;;;13.80;75.40;;;;;;5031099;28;20015;-78
2022/08/29 02:28:19;;;;;;;;;;;13.70;76.00;;;;;;5023796;28;20299;-78
2022/08/29 02:30:47;;;;;;;;;;;13.70;76.30;;;;;;5022155;28;20296;-77
2022/08/29 02:33:12;;;;;;;;;;;13.70;77.00;;;;;;5025330;28;19928;-77
2022/08/29 02:35:38;;;;;;;;;;;13.80;76.90;;;;;;5029713;28;19913;-77
2022/08/29 02:38:04;;;;;;;;;;;13.80;76.40;;;;;;5028419;28;19913;-78
2022/08/29 02:40:30;;;;;;;;;;;13.80;76.50;;;;;;5024386;28;19914;-78
2022/08/29 02:42:55;;;;;;;;;;;13.80;76.30;;;;;;5027948;28;19979;-78
2022/08/29 02:45:21;;;;;;;;;;;13.90;76.00;;;;;;5009929;28;19913;-78
2022/08/29 02:47:47;;;;;;;;;;;13.80;76.40;;;;;;5007393;28;19943;-78
2022/08/29 02:50:12;;;;;;;;;;;13.90;75.90;;;;;;5028390;28;19920;-77
2022/08/29 02:52:39;;;;;;;;;;;13.90;76.10;;;;;;5028163;28;20004;-78
2022/08/29 02:55:05;;;;;;;;;;;13.80;75.70;;;;;;5030239;28;19999;-78
2022/08/29 02:57:31;;;;;;;;;;;13.70;76.50;;;;;;5030135;28;20322;-78
2022/08/29 02:59:56;;;;;;;;;;;13.70;76.20;;;;;;5027533;28;19921;-78
2022/08/29 03:02:21;;;;;;;;;;;13.80;76.10;;;;;;5028975;28;19920;-78
2022/08/29 03:04:47;;;;;;;;;;;13.80;75.80;;;;;;5030321;28;19920;-78
2022/08/29 03:07:12;;;;;;;;;;;13.60;75.50;;;;;;5029144;28;20299;-78
2022/08/29 03:09:38;;;;;;;;;;;13.60;75.20;;;;;;5047167;22;20003;-76
2022/08/29 03:12:03;;;;;;;;;;;13.60;75.20;;;;;;5026333;28;19929;-76
2022/08/29 03:14:29;;;;;;;;;;;13.50;75.70;;;;;;5027088;28;19920;-75
2022/08/29 03:16:54;;;;;;;;;;;13.40;76.00;;;;;;5022588;28;20388;-76
2022/08/29 03:19:21;;;;;;;;;;;13.30;76.10;;;;;;5008153;28;19913;-76
2022/08/29 03:21:47;;;;;;;;;;;13.30;76.40;;;;;;5024157;28;20270;-76
2022/08/29 03:24:13;;;;;;;;;;;13.40;76.40;;;;;;5027379;28;19914;-76
2022/08/29 03:26:38;;;;;;;;;;;13.40;76.50;;;;;;5025437;28;19913;-76
2022/08/29 03:29:04;;;;;;;;;;;13.40;76.60;;;;;;5027729;28;20434;-76
2022/08/29 03:31:29;;;;;;;;;;;13.30;76.60;;;;;;5027781;28;19913;-75
2022/08/29 03:33:55;;;;;;;;;;;13.30;76.50;;;;;;5028270;28;19913;-76
2022/08/29 03:36:25;;;;;;;;;;;13.30;76.80;;;;;;5028658;28;19948;-76
2022/08/29 03:38:50;;;;;;;;;;;13.10;77.20;;;;;;5005502;28;19961;-75
2022/08/29 03:41:23;;;;;;;;;;;13.20;77.20;;;;;;5009513;28;19952;-76
2022/08/29 03:43:49;;;;;;;;;;;13.10;77.10;;;;;;5005334;28;19936;-76
2022/08/29 03:46:14;;;;;;;;;;;13.10;77.00;;;;;;5017447;28;20381;-75
2022/08/29 03:48:40;;;;;;;;;;;13.10;77.10;;;;;;5008028;28;20006;-76
2022/08/29 03:51:06;;;;;;;;;;;13.10;77.20;;;;;;5026079;28;19917;-76
2022/08/29 03:53:32;;;;;;;;;;;13.10;77.20;;;;;;5007418;28;19913;-76
2022/08/29 03:55:57;;;;;;;;;;;13.10;77.10;;;;;;5012494;28;20343;-76
2022/08/29 03:58:23;;;;;;;;;;;13.10;77.20;;;;;;5025294;28;19921;-76
2022/08/29 04:00:48;;;;;;;;;;;13.00;77.60;;;;;;5031240;28;19913;-76
2022/08/29 04:03:14;;;;;;;;;;;13.00;77.50;;;;;;5025643;28;19913;-76
2022/08/29 04:05:39;;;;;;;;;;;13.00;77.50;;;;;;5027397;28;20453;-76
2022/08/29 04:08:05;;;;;;;;;;;12.90;77.50;;;;;;5014725;28;19983;-75
2022/08/29 04:10:32;;;;;;;;;;;13.00;77.80;;;;;;5031948;28;20003;-75
2022/08/29 04:12:58;;;;;;;;;;;13.00;77.90;;;;;;5011675;28;19913;-76
2022/08/29 04:15:25;;;;;;;;;;;13.00;77.80;;;;;;5010927;28;19913;-76
2022/08/29 04:17:52;;;;;;;;;;;13.00;77.80;;;;;;5032562;28;19913;-75
2022/08/29 04:20:19;;;;;;;;;;;12.90;78.00;;;;;;5028143;28;19923;-76
2022/08/29 04:22:44;;;;;;;;;;;12.90;78.10;;;;;;5030309;28;19952;-76
2022/08/29 04:25:12;;;;;;;;;;;12.90;78.20;;;;;;5029026;28;19953;-76
2022/08/29 04:27:38;;;;;;;;;;;12.90;78.40;;;;;;5030350;28;19917;-76
2022/08/29 04:30:05;;;;;;;;;;;12.90;78.70;;;;;;5028397;28;19913;-76
2022/08/29 04:32:30;;;;;;;;;;;13.00;78.40;;;;;;5025714;28;20745;-76
2022/08/29 04:34:57;;;;;;;;;;;13.00;78.00;;;;;;5031832;28;20020;-76
2022/08/29 04:37:23;;;;;;;;;;;12.90;78.00;;;;;;5013284;28;20004;-76
2022/08/29 04:39:48;;;;;;;;;;;12.90;78.40;;;;;;5028727;28;20445;-76
2022/08/29 04:42:16;;;;;;;;;;;12.90;78.60;;;;;;5012752;28;19963;-76
2022/08/29 04:44:41;;;;;;;;;;;12.80;78.70;;;;;;5025814;28;19921;-76
2022/08/29 04:47:07;;;;;;;;;;;12.80;78.70;;;;;;5030061;28;19928;-76
2022/08/29 04:49:32;;;;;;;;;;;13.00;78.30;;;;;;5022442;28;19920;-77
2022/08/29 04:51:58;;;;;;;;;;;13.00;78.40;;;;;;5013517;28;19928;-76
2022/08/29 04:54:23;;;;;;;;;;;13.00;78.30;;;;;;5023424;28;19921;-76
2022/08/29 04:56:49;;;;;;;;;;;13.10;78.20;;;;;;5028794;28;19940;-77
2022/08/29 04:59:15;;;;;;;;;;;13.00;78.50;;;;;;5029687;28;19960;-76
2022/08/29 05:01:40;;;;;;;;;;;13.00;78.30;;;;;;5012774;28;19950;-78
2022/08/29 05:04:06;;;;;;;;;;;13.10;78.20;;;;;;5012284;28;20294;-76
2022/08/29 05:06:31;;;;;;;;;;;13.00;78.50;;;;;;5024338;28;20393;-75
2022/08/29 05:08:57;;;;;;;;;;;13.10;78.80;;;;;;5026150;28;20365;-76
2022/08/29 05:11:22;;;;;;;;;;;13.10;78.70;;;;;;5013293;28;19921;-76
2022/08/29 05:13:48;;;;;;;;;;;13.10;78.70;;;;;;4999965;28;19917;-76
2022/08/29 05:16:15;;;;;;;;;;;13.30;78.40;;;;;;5020026;28;20297;-75
2022/08/29 05:18:43;;;;;;;;;;;13.30;78.10;;;;;;5016018;28;19914;-75
2022/08/29 05:21:09;;;;;;;;;;;13.20;78.10;;;;;;5006280;28;20100;-76
2022/08/29 05:23:34;;;;;;;;;;;13.10;78.10;;;;;;5029753;28;20613;-78
2022/08/29 05:26:02;;;;;;;;;;;13.20;78.10;;;;;;5026637;28;19917;-76
2022/08/29 05:28:28;;;;;;;;;;;13.30;78.10;;;;;;5025938;28;20463;-80
2022/08/29 05:30:54;;;;;;;;;;;13.40;78.00;;;;;;5017074;28;19917;-78
2022/08/29 05:33:19;;;;;;;;;;;13.30;78.20;;;;;;5029849;28;19967;-77
2022/08/29 05:35:45;;;;;;;;;;;13.40;78.80;;;;;;5015745;28;19929;-76
2022/08/29 05:38:11;;;;;;;;;;;13.40;78.50;;;;;;5022942;28;19923;-76
2022/08/29 05:40:37;;;;;;;;;;;13.50;78.10;;;;;;5007019;28;19951;-76
2022/08/29 05:43:02;;;;;;;;;;;13.40;78.00;;;;;;5007138;28;19956;-76
2022/08/29 05:45:28;;;;;;;;;;;13.40;78.10;;;;;;5011003;28;20014;-76
2022/08/29 05:47:55;;;;;;;;;;;13.50;78.40;;;;;;5029774;28;19917;-76
2022/08/29 05:50:20;;;;;;;;;;;13.50;78.60;;;;;;5013018;28;19921;-75
2022/08/29 05:52:46;;;;;;;;;;;13.60;78.30;;;;;;5027591;28;19922;-75
2022/08/29 05:55:11;;;;;;;;;;;13.60;79.20;;;;;;5013241;28;19913;-77
2022/08/29 05:57:37;;;;;;;;;;;13.60;79.10;;;;;;5010639;28;19913;-76
2022/08/29 06:00:03;;;;;;;;;;;13.70;79.40;;;;;;5029072;28;19913;-75
2022/08/29 06:02:29;;;;;;;;;;;13.70;78.80;;;;;;5027971;28;19917;-76
2022/08/29 06:04:55;;;;;;;;;;;13.80;78.80;;;;;;5026398;28;20267;-76
2022/08/29 06:07:21;;;;;;;;;;;13.90;78.80;;;;;;5025482;28;20004;-75
2022/08/29 06:09:46;;;;;;;;;;;13.90;78.80;;;;;;5027931;28;20000;-76
2022/08/29 06:12:13;;;;;;;;;;;13.80;79.10;;;;;;5031466;28;19909;-76
2022/08/29 06:14:39;;;;;;;;;;;13.80;80.10;;;;;;5023542;28;19913;-77
2022/08/29 06:17:05;;;;;;;;;;;13.80;80.90;;;;;;5011148;28;19924;-76
2022/08/29 06:19:33;;;;;;;;;;;13.90;81.20;;;;;;5012647;28;20373;-75
2022/08/29 06:22:00;;;;;;;;;;;14.00;81.10;;;;;;5029739;28;19920;-77
2022/08/29 06:24:25;;;;;;;;;;;14.00;81.20;;;;;;5032047;28;20297;-76
2022/08/29 06:26:50;;;;;;;;;;;14.10;80.30;;;;;;5025858;28;19913;-76
2022/08/29 06:29:16;;;;;;;;;;;14.20;79.80;;;;;;5012739;28;20335;-76
2022/08/29 06:31:42;;;;;;;;;;;14.30;77.90;;;;;;5028572;28;19948;-76
2022/08/29 06:34:08;;;;;;;;;;;14.40;77.80;;;;;;5030091;28;19913;-76
2022/08/29 06:36:34;;;;;;;;;;;14.40;77.80;;;;;;5026030;28;19913;-76
2022/08/29 06:39:01;;;;;;;;;;;14.50;77.70;;;;;;5007474;28;19971;-76
2022/08/29 06:41:27;;;;;;;;;;;14.70;77.80;;;;;;5022245;28;19952;-76
2022/08/29 06:43:56;;;;;;;;;;;14.90;77.40;;;;;;5021840;28;20007;-76
2022/08/29 06:46:24;;;;;;;;;;;15.10;77.20;;;;;;5009275;28;20004;-77
2022/08/29 06:48:49;;;;;;;;;;;15.20;76.30;;;;;;5025854;28;20624;-77
2022/08/29 06:51:15;;;;;;;;;;;15.30;76.40;;;;;;5025651;28;20012;-76
2022/08/29 06:53:40;;;;;;;;;;;15.30;75.90;;;;;;5023532;28;19920;-77
2022/08/29 06:56:07;;;;;;;;;;;15.20;75.30;;;;;;5007315;28;20366;-76
2022/08/29 06:58:33;;;;;;;;;;;15.20;75.40;;;;;;5025963;28;19955;-76
2022/08/29 07:01:04;;;;;;;;;;;15.30;75.70;;;;;;5025285;28;19921;-77
2022/08/29 07:03:29;;;;;;;;;;;15.50;74.20;;;;;;5025440;28;20349;-77
2022/08/29 07:05:55;;;;;;;;;;;15.70;73.70;;;;;;5026897;28;19917;-77
2022/08/29 07:08:22;;;;;;;;;;;15.90;73.20;;;;;;5008289;28;19917;-77
2022/08/29 07:10:48;;;;;;;;;;;15.90;72.90;;;;;;5024819;28;20290;-77
2022/08/29 07:13:14;;;;;;;;;;;16.00;72.10;;;;;;5007614;28;19921;-77
2022/08/29 07:15:56;;;;;;;;;;;15.70;73.30;;;;;;5065059;27;20265;-75
2022/08/29 07:18:21;;;;;;;;;;;15.60;74.60;;;;;;5058230;28;19919;-75
2022/08/29 07:20:47;;;;;;;;;;;15.60;74.30;;;;;;5062288;28;20011;-75
2022/08/29 07:23:12;;;;;;;;;;;15.60;74.80;;;;;;5065440;28;19966;-76
2022/08/29 07:25:38;;;;;;;;;;;15.80;74.40;;;;;;5063417;28;19925;-76
2022/08/29 07:28:04;;;;;;;;;;;15.80;74.50;;;;;;5052667;28;19940;-76
2022/08/29 07:30:29;;;;;;;;;;;15.70;74.20;;;;;;5060200;28;19912;-76
2022/08/29 07:32:55;;;;;;;;;;;15.70;74.30;;;;;;5057357;28;20654;-79
2022/08/29 07:35:20;;;;;;;;;;;15.90;74.40;;;;;;5064497;28;19924;-79
2022/08/29 07:37:46;;;;;;;;;;;16.00;73.90;;;;;;5064061;28;19916;-78
2022/08/29 07:40:12;;;;;;;;;;;16.10;73.90;;;;;;5084027;28;19979;-78
2022/08/29 07:42:38;;;;;;;;;;;16.10;73.80;;;;;;5064677;28;19928;-79
2022/08/29 07:45:04;;;;;;;;;;;16.20;72.80;;;;;;5063177;28;19913;-79
2022/08/29 07:47:30;;;;;;;;;;;16.30;72.70;;;;;;5080945;28;19919;-81
2022/08/29 07:49:55;;;;;;;;;;;16.40;72.40;;;;;;5061170;28;19917;-79
2022/08/29 07:52:21;;;;;;;;;;;16.60;70.70;;;;;;5061788;28;20032;-77
2022/08/29 07:54:47;;;;;;;;;;;16.50;71.40;;;;;;5062741;28;19925;-77
2022/08/29 07:57:15;;;;;;;;;;;16.50;70.90;;;;;;5056510;28;19913;-77
2022/08/29 07:59:40;;;;;;;;;;;16.40;71.90;;;;;;5054849;28;19940;-77
2022/08/29 08:02:06;;;;;;;;;;;16.30;73.00;;;;;;5059975;28;19920;-78
2022/08/29 08:04:31;;;;;;;;;;;16.40;73.50;;;;;;5056741;28;19924;-78
2022/08/29 08:06:57;;;;;;;;;;;16.30;72.30;;;;;;5053652;28;19917;-79
2022/08/29 08:09:22;;;;;;;;;;;16.50;71.30;;;;;;5052550;28;19913;-78
2022/08/29 08:11:48;;;;;;;;;;;16.50;71.20;;;;;;5085258;28;19913;-78
2022/08/29 08:14:13;;;;;;;;;;;16.50;71.60;;;;;;5054114;28;19970;-78
2022/08/29 08:16:39;;;;;;;;;;;16.80;69.20;;;;;;5052502;28;19913;-78
2022/08/29 08:19:05;;;;;;;;;;;16.80;70.00;;;;;;5051268;28;19913;-78
2022/08/29 08:21:30;;;;;;;;;;;16.80;69.00;;;;;;5050284;28;19957;-76
2022/08/29 08:23:56;;;;;;;;;;;16.90;69.30;;;;;;5053450;28;20381;-77
2022/08/29 08:26:22;;;;;;;;;;;17.00;69.50;;;;;;5046589;28;19913;-79
2022/08/29 08:28:48;;;;;;;;;;;17.10;68.00;;;;;;5039148;28;19932;-76
2022/08/29 08:31:14;;;;;;;;;;;17.20;68.50;;;;;;5070257;28;19917;-78
2022/08/29 08:33:40;;;;;;;;;;;17.30;67.60;;;;;;5050941;28;20402;-79
2022/08/29 08:36:17;;;;;;;;;;;17.50;67.70;;;;;;5053489;28;19923;-78
2022/08/29 08:38:42;;;;;;;;;;;17.40;66.60;;;;;;5049062;28;19949;-78
2022/08/29 08:41:15;;;;;;;;;;;17.60;64.50;;;;;;5049986;28;19971;-76
2022/08/29 08:43:46;;;;;;;;;;;17.90;63.80;;;;;;5029045;28;19982;-77
2022/08/29 08:46:13;;;;;;;;;;;17.80;64.80;;;;;;5054543;28;19933;-76
2022/08/29 08:48:38;;;;;;;;;;;17.80;64.00;;;;;;5038167;28;19975;-78
2022/08/29 08:51:04;;;;;;;;;;;17.80;64.10;;;;;;5037121;28;19913;-77
2022/08/29 08:53:35;;;;;;;;;;;17.90;64.10;;;;;;5034880;28;19913;-79
2022/08/29 08:56:04;;;;;;;;;;;18.10;63.00;;;;;;5032969;28;19987;-77
2022/08/29 08:58:35;;;;;;;;;;;18.10;62.20;;;;;;5049591;28;19913;-78
2022/08/29 09:01:20;;;;;;;;;;;18.00;61.80;;;;;;5035807;28;19969;-78
2022/08/29 09:04:04;;;;;;;;;;;17.90;62.70;;;;;;5070425;28;19979;-78
2022/08/29 09:06:30;;;;;;;;;;;18.00;62.50;;;;;;5047913;28;20423;-78
2022/08/29 09:09:02;;;;;;;;;;;18.10;62.20;;;;;;5043494;28;19981;-79
2022/08/29 09:11:36;;;;;;;;;;;18.30;61.30;;;;;;5051396;22;20328;-82
2022/08/29 09:14:14;;;;;;;;;;;18.40;60.30;;;;;;4997923;28;20003;-82
2022/08/29 09:16:41;;;;;;;;;;;18.40;60.10;;;;;;4996422;28;20072;-81
2022/08/29 09:19:10;;;;;;;;;;;18.30;60.70;;;;;;4997310;28;19914;-81
2022/08/29 09:21:42;;;;;;;;;;;18.30;60.60;;;;;;4985751;28;19922;-82
2022/08/29 09:24:11;;;;;;;;;;;18.50;61.70;;;;;;4973818;28;20352;-80
2022/08/29 09:26:37;;;;;;;;;;;18.60;61.60;;;;;;4972529;28;19918;-81
2022/08/29 09:29:02;;;;;;;;;;;18.70;60.30;;;;;;4971867;28;20686;-81
2022/08/29 09:31:32;;;;;;;;;;;18.80;60.90;;;;;;4975513;28;20012;-82
2022/08/29 09:34:09;;;;;;;;;;;18.90;59.90;;;;;;4977177;28;19918;-83
2022/08/29 09:36:37;;;;;;;;;;;18.80;59.40;;;;;;4973636;28;19944;-85
2022/08/29 09:39:32;;;;;;;;;;;18.80;58.80;;;;;;4975589;28;19985;-84
2022/08/29 09:42:16;;;;;;;;;;;19.20;57.20;;;;;;4967100;28;19937;-85
2022/08/29 09:44:50;;;;;;;;;;;19.10;58.40;;;;;;4992032;28;20407;-84
2022/08/29 09:47:19;;;;;;;;;;;18.90;58.80;;;;;;4975846;28;19922;-86
2022/08/29 09:50:03;;;;;;;;;;;19.00;59.00;;;;;;4973770;28;19922;-86
2022/08/29 09:52:29;;;;;;;;;;;19.30;58.30;;;;;;4972054;28;19914;-85
2022/08/29 09:54:55;;;;;;;;;;;19.50;58.00;;;;;;4975791;28;19918;-85
2022/08/29 09:57:23;;;;;;;;;;;19.60;57.70;;;;;;4971388;28;20059;-85
2022/08/29 10:00:12;;;;;;;;;;;19.70;57.40;;;;;;4977178;28;19965;-85
2022/08/29 10:02:41;;;;;;;;;;;19.80;56.40;;;;;;4975260;28;19936;-86
2022/08/29 10:05:09;;;;;;;;;;;19.80;56.90;;;;;;4988560;28;19965;-83
2022/08/29 10:07:45;;;;;;;;;;;19.60;56.20;;;;;;4961323;28;19930;-83
2022/08/29 10:10:15;;;;;;;;;;;20.00;55.90;;;;;;4967951;28;20282;-83
2022/08/29 10:13:00;;;;;;;;;;;19.70;57.20;;;;;;4984520;28;20311;-84
2022/08/29 10:15:28;;;;;;;;;;;19.60;57.60;;;;;;4986321;28;19941;-85
2022/08/29 10:18:27;;;;;;;;;;;19.40;56.80;;;;;;4988131;28;20385;-84
2022/08/29 10:20:57;;;;;;;;;;;19.20;57.60;;;;;;4970246;28;19914;-83
2022/08/29 10:23:29;;;;;;;;;;;19.40;58.60;;;;;;4983135;28;20021;-83
2022/08/29 10:25:56;;;;;;;;;;;19.60;56.40;;;;;;4982548;28;19920;-83
2022/08/29 10:28:21;;;;;;;;;;;19.40;57.10;;;;;;4963513;28;19984;-83
2022/08/29 10:30:55;;;;;;;;;;;19.20;57.70;;;;;;4965244;28;19950;-83
2022/08/29 10:33:29;;;;;;;;;;;19.10;58.50;;;;;;4965244;28;20016;-83
2022/08/29 10:35:58;;;;;;;;;;;19.10;59.50;;;;;;4983553;28;19941;-81
2022/08/29 10:38:26;;;;;;;;;;;19.10;59.50;;;;;;4982859;28;20368;-80
2022/08/29 10:41:00;;;;;;;;;;;19.20;58.60;;;;;;4979957;28;19922;-80
2022/08/29 10:43:34;;;;;;;;;;;19.30;57.00;;;;;;4980769;28;19930;-82
2022/08/29 10:46:15;;;;;;;;;;;19.30;56.50;;;;;;4965678;28;19914;-83
2022/08/29 10:48:43;;;;;;;;;;;19.40;56.20;;;;;;4982018;28;19914;-80
2022/08/29 10:51:11;;;;;;;;;;;19.60;56.10;;;;;;4981177;28;19925;-82
2022/08/29 10:53:39;;;;;;;;;;;19.60;55.50;;;;;;4981853;28;19941;-81
2022/08/29 10:56:26;;;;;;;;;;;19.40;56.40;;;;;;4966113;28;19978;-81
2022/08/29 10:58:59;;;;;;;;;;;19.20;57.70;;;;;;4966952;28;19949;-81
2022/08/29 11:01:27;;;;;;;;;;;19.20;57.30;;;;;;4983934;28;19914;-81
2022/08/29 11:04:16;;;;;;;;;;;19.10;57.70;;;;;;4961549;28;19914;-81
2022/08/29 11:06:46;;;;;;;;;;;19.10;57.30;;;;;;4970433;28;19920;-81
2022/08/29 11:09:31;;;;;;;;;;;19.40;56.50;;;;;;4988031;28;20009;-81
2022/08/29 11:12:01;;;;;;;;;;;19.40;57.20;;;;;;4993324;28;19968;-81
2022/08/29 11:14:30;;;;;;;;;;;19.40;57.10;;;;;;4994176;28;19929;-84
2022/08/29 11:16:57;;;;;;;;;;;19.60;55.80;;;;;;4993199;28;19914;-84
2022/08/29 11:19:41;;;;;;;;;;;19.50;55.60;;;;;;5000268;28;19902;-84
2022/08/29 11:22:25;;;;;;;;;;;19.50;56.60;;;;;;4999306;28;20396;-83
2022/08/29 11:24:58;;;;;;;;;;;19.50;57.60;;;;;;5001240;28;19910;-81
2022/08/29 11:27:39;;;;;;;;;;;19.50;57.50;;;;;;4989266;28;19959;-81
2022/08/29 11:30:06;;;;;;;;;;;19.60;57.20;;;;;;4979751;28;19918;-80
2022/08/29 11:32:41;;;;;;;;;;;19.60;56.70;;;;;;4993649;28;20320;-80
2022/08/29 11:35:06;;;;;;;;;;;19.60;57.10;;;;;;5000241;28;19933;-79
2022/08/29 11:38:07;;;;;;;;;;;19.60;56.30;;;;;;5000791;28;19914;-83
2022/08/29 11:40:40;;;;;;;;;;;19.60;56.60;;;;;;4923221;29;19923;-85
2022/08/29 11:43:10;;;;;;;;;;;19.60;55.70;;;;;;4969447;28;19913;-82
2022/08/29 11:45:37;;;;;;;;;;;19.50;56.00;;;;;;4968846;28;20388;-81
2022/08/29 11:48:18;;;;;;;;;;;19.80;56.10;;;;;;4986886;28;19921;-82
2022/08/29 11:50:44;;;;;;;;;;;19.80;55.50;;;;;;4985387;28;19919;-82
2022/08/29 11:53:36;;;;;;;;;;;20.00;55.20;;;;;;4995136;28;19925;-82
2022/08/29 11:56:07;;;;;;;;;;;20.00;55.80;;;;;;4985485;28;19925;-80
2022/08/29 11:58:34;;;;;;;;;;;20.00;54.90;;;;;;4988944;28;19914;-81
2022/08/29 12:01:00;;;;;;;;;;;20.10;55.10;;;;;;4981441;28;19965;-81
2022/08/29 12:03:31;;;;;;;;;;;20.10;54.40;;;;;;4980032;28;20475;-81
2022/08/29 12:06:02;;;;;;;;;;;20.20;54.10;;;;;;4980200;28;19914;-83
2022/08/29 12:08:32;;;;;;;;;;;20.20;56.10;;;;;;4994332;28;19913;-80
2022/08/29 12:10:59;;;;;;;;;;;20.10;56.30;;;;;;4997125;28;20242;-81
2022/08/29 12:13:43;;;;;;;;;;;20.30;55.50;;;;;;4996888;28;19937;-82
2022/08/29 12:16:09;;;;;;;;;;;20.50;54.70;;;;;;5007143;28;19914;-80
2022/08/29 12:18:39;;;;;;;;;;;20.70;54.70;;;;;;5013098;28;20017;-81
2022/08/29 12:21:30;;;;;;;;;;;20.80;53.80;;;;;;5014009;28;20435;-82
2022/08/29 12:23:56;;;;;;;;;;;20.80;54.40;;;;;;5004620;28;19910;-81
2022/08/29 12:26:51;;;;;;;;;;;20.60;52.90;;;;;;4997517;28;19985;-81
2022/08/29 12:29:23;;;;;;;;;;;20.60;53.00;;;;;;4980279;28;20404;-81
2022/08/29 12:32:06;;;;;;;;;;;20.70;52.10;;;;;;4976326;28;19917;-82
2022/08/29 12:34:34;;;;;;;;;;;20.90;52.60;;;;;;4975636;28;20013;-81
2022/08/29 12:37:05;;;;;;;;;;;20.70;53.50;;;;;;4992006;28;19914;-81
2022/08/29 12:39:31;;;;;;;;;;;20.60;53.30;;;;;;4994460;28;19921;-81
2022/08/29 12:42:17;;;;;;;;;;;20.60;53.70;;;;;;5002139;28;20347;-82
2022/08/29 12:44:44;;;;;;;;;;;20.80;53.90;;;;;;4974767;28;19921;-81
2022/08/29 12:47:20;;;;;;;;;;;20.80;54.10;;;;;;4978186;28;19925;-79
2022/08/29 12:49:50;;;;;;;;;;;20.80;54.10;;;;;;4991605;28;20415;-78
2022/08/29 12:52:18;;;;;;;;;;;20.90;53.30;;;;;;4980495;28;19914;-80
2022/08/29 12:54:44;;;;;;;;;;;21.10;52.20;;;;;;5002884;28;19922;-79
2022/08/29 12:57:18;;;;;;;;;;;21.10;52.00;;;;;;4982562;28;20401;-79
2022/08/29 12:59:44;;;;;;;;;;;21.10;52.90;;;;;;4999604;28;19921;-79
2022/08/29 13:02:21;;;;;;;;;;;21.20;52.10;;;;;;5000134;28;19997;-78
2022/08/29 13:04:47;;;;;;;;;;;21.20;52.00;;;;;;4977762;28;19917;-78
2022/08/29 13:07:15;;;;;;;;;;;21.10;53.10;;;;;;4992965;28;20297;-79
2022/08/29 13:09:41;;;;;;;;;;;21.10;54.90;;;;;;4991928;28;19914;-78
2022/08/29 13:12:09;;;;;;;;;;;21.10;52.70;;;;;;4971433;28;19926;-80
2022/08/29 13:14:53;;;;;;;;;;;21.10;52.70;;;;;;4994376;28;20033;-79
2022/08/29 13:17:21;;;;;;;;;;;21.10;53.70;;;;;;4975174;28;19925;-78
2022/08/29 13:20:05;;;;;;;;;;;21.10;51.70;;;;;;4986866;28;19925;-79
2022/08/29 13:22:31;;;;;;;;;;;21.00;51.30;;;;;;4985817;28;19917;-79
2022/08/29 13:25:04;;;;;;;;;;;21.10;51.40;;;;;;4969749;28;19918;-78
2022/08/29 13:27:29;;;;;;;;;;;21.10;50.30;;;;;;4986631;28;19925;-79
2022/08/29 13:29:58;;;;;;;;;;;21.10;51.00;;;;;;4988216;28;19914;-79
2022/08/29 13:32:25;;;;;;;;;;;21.10;50.70;;;;;;4973842;28;19914;-78
2022/08/29 13:34:57;;;;;;;;;;;21.30;50.50;;;;;;4974139;28;19926;-78
2022/08/29 13:37:28;;;;;;;;;;;21.10;52.10;;;;;;4981447;28;19918;-78
2022/08/29 13:39:53;;;;;;;;;;;21.20;51.40;;;;;;4977184;28;19957;-79
2022/08/29 13:42:25;;;;;;;;;;;21.10;51.90;;;;;;4975838;28;19925;-79
2022/08/29 13:44:53;;;;;;;;;;;21.10;51.30;;;;;;4995148;28;19940;-78
2022/08/29 13:47:23;;;;;;;;;;;21.20;51.50;;;;;;4970504;28;20381;-79
2022/08/29 13:49:49;;;;;;;;;;;21.20;51.60;;;;;;4992689;28;20288;-79
2022/08/29 13:52:16;;;;;;;;;;;21.30;51.50;;;;;;4975538;28;20420;-79
2022/08/29 13:54:42;;;;;;;;;;;21.30;50.40;;;;;;4984200;28;20266;-79
2022/08/29 13:57:11;;;;;;;;;;;21.30;48.90;;;;;;4985748;28;19941;-79
2022/08/29 13:59:37;;;;;;;;;;;21.50;50.30;;;;;;4979112;28;19980;-81
2022/08/29 14:02:02;;;;;;;;;;;21.50;50.10;;;;;;4992313;28;19918;-82
2022/08/29 14:04:28;;;;;;;;;;;21.60;49.70;;;;;;4973485;28;20389;-80
2022/08/29 14:06:54;;;;;;;;;;;21.50;50.50;;;;;;4976187;28;20063;-80
2022/08/29 14:09:33;;;;;;;;;;;21.60;49.90;;;;;;4973627;28;19965;-81
2022/08/29 14:11:59;;;;;;;;;;;21.60;49.10;;;;;;4990673;28;19918;-81
2022/08/29 14:14:24;;;;;;;;;;;21.60;50.40;;;;;;4981939;28;19918;-81
2022/08/29 14:16:52;;;;;;;;;;;21.70;48.00;;;;;;4987233;28;19936;-81
2022/08/29 14:19:24;;;;;;;;;;;21.70;49.40;;;;;;4973340;28;20344;-81
2022/08/29 14:21:49;;;;;;;;;;;21.70;49.60;;;;;;4989194;28;19914;-82
2022/08/29 14:24:15;;;;;;;;;;;21.80;48.70;;;;;;4978352;28;20273;-83
2022/08/29 14:26:40;;;;;;;;;;;21.80;48.70;;;;;;4985770;28;19914;-82